Flight Track Log - Related Links

Times and Time Zones

All times are in EDT time to prevent confusion due to time zone crossing. See the EJA831 flight status page for this flight to view local times or setup timezone preferences in your user account.


Time Position Orientation Groundspeed Altitude Reporting Facility
EDT Latitude Longitude Course Direction KTS MPH feet Rate Location/Type
Sun 05:17:27 PM 34.2108 -119.1136 262° West 182 209 1,000  Level Los Angeles Center
Sun 05:18:22 PM 34.2036 -119.1783 262° West 237 273 4,100 3,538 Climbing Los Angeles Center
Sun 05:18:45 PM 34.1997 -119.2067 261° West 249 287 5,600 3,459 Climbing Los Angeles Center
Sun 05:19:47 PM 34.2119 -119.2883 280° West 256 295 9,000 2,274 Climbing Los Angeles Center
Sun 05:20:49 PM 34.2528 -119.3678 302° West 287 330 10,300 2,081 Climbing Los Angeles Center
Sun 05:21:51 PM 34.3000 -119.4403 308° West 275 316 13,300 2,758 Climbing Los Angeles Center
Sun 05:22:53 PM 34.3528 -119.5153 310° West 280 322 16,000 2,565 Climbing Los Angeles Center
Sun 05:23:55 PM 34.4153 -119.5961 313° West 285 328 18,600 2,256 Climbing Los Angeles Center
Sun 05:24:58 PM 34.4728 -119.6681 314° West 295 339 20,700 1,872 Climbing Los Angeles Center
Sun 05:26:00 PM 34.5303 -119.7425 313° West 302 348 22,500 1,694 Climbing Los Angeles Center
Sun 05:27:02 PM 34.5881 -119.8214 312° West 311 358 24,200 1,597 Climbing Los Angeles Center
Sun 05:28:04 PM 34.6533 -119.9039 314° West 322 371 25,800 1,403 Climbing Los Angeles Center
Sun 05:29:06 PM 34.7297 -119.9625 328° Northwest 338 389 27,100 1,065 Climbing Los Angeles Center
Sun 05:30:08 PM 34.8194 -119.9997 341° North 341 392 28,000 435 Climbing Los Angeles Center
Sun 05:31:10 PM 34.9369 -120.0461 342° North 368 423 28,000  Level Los Angeles Center
Sun 05:32:12 PM 35.0364 -120.0869 341° North 375 432 28,000  Level Los Angeles Center
Sun 05:33:14 PM 35.1319 -120.1244 342° North 378 435 28,000  Level Los Angeles Center
Sun 05:34:16 PM 35.2322 -120.1647 342° North 381 438 28,000  Level Los Angeles Center
Sun 05:35:19 PM 35.3514 -120.2144 341° North 379 436 28,000  Level Los Angeles Center
Sun 05:36:21 PM 35.4528 -120.2589 340° North 384 442 28,000  Level Los Angeles Center
Sun 05:37:23 PM 35.5503 -120.2942 344° North 376 433 28,000  Level Los Angeles Center
Sun 05:38:25 PM 35.6481 -120.3356 341° North 373 429 28,000  Level Los Angeles Center
Sun 05:39:00 PM 35.7042 -120.3586 342° North 372 428 28,000  Level Oakland Center
Sun 05:40:02 PM 35.8022 -120.3997 341° North 372 428 28,000  Level Oakland Center
Sun 05:41:03 PM 35.9192 -120.4469 342° North 371 427 28,000  Level Oakland Center
Sun 05:42:05 PM 36.0172 -120.4869 342° North 371 427 28,000 -629 Level Oakland Center
Sun 05:43:07 PM 36.1142 -120.5286 341° North 370 426 26,700 -976 Descending Oakland Center
Sun 05:44:08 PM 36.2086 -120.5678 342° North 362 417 26,000 -341 Descending Oakland Center
Sun 05:45:10 PM 36.3042 -120.6075 341° North 362 417 26,000  Level Oakland Center
Sun 05:46:12 PM 36.4006 -120.6483 341° North 365 420 26,000  Level Oakland Center
Sun 05:47:13 PM 36.4981 -120.6894 341° North 368 423 26,000  Level Oakland Center
Sun 05:48:15 PM 36.5950 -120.7283 342° North 368 423 26,000 -48 Level Oakland Center
Sun 05:49:17 PM 36.7114 -120.7758 342° North 365 420 25,900 -726 Descending Oakland Center
Sun 05:50:19 PM 36.7844 -120.8619 317° Northwest 365 420 24,500 -1,512 Descending Oakland Center
Sun 05:51:20 PM 36.8583 -120.9442 318° Northwest 355 409 22,800 -1,790 Descending Oakland Center
Sun 05:52:23 PM 36.9292 -121.0258 317° Northwest 349 402 20,800 -1,935 Descending Oakland Center
Sun 05:53:24 PM 37.0000 -121.1064 318° Northwest 345 397 18,800 -1,967 Descending Oakland Center
Sun 05:54:25 PM 37.0686 -121.1844 318° Northwest 338 389 16,800 -1,854 Descending Oakland Center
Sun 05:55:27 PM 37.1325 -121.2608 316° Northwest 323 372 15,000 -1,887 Descending Oakland Center
Sun 05:56:29 PM 37.2064 -121.3453 318° Northwest 304 350 12,900 -1,902 Descending Oakland Center
Sun 05:57:30 PM 37.2692 -121.4189 317° Northwest 306 352 11,100 -1,659 Descending Oakland Center
Sun 05:58:32 PM 37.3267 -121.4836 318° Northwest 272 313 9,500 -1,355 Descending Oakland Center
Sun 05:59:34 PM 37.3789 -121.5467 316° Northwest 265 305 8,300 -1,086 Descending Oakland Center
Sun 06:00:17 PM 37.4167 -121.6000 312° West 252 290 7,600 -816 Descending Northern Cal TRACON
Sun 06:01:17 PM 37.4667 -121.6500 322° Northwest 262 302 6,900 -793 Descending Northern Cal TRACON
Sun 06:02:18 PM 37.5167 -121.7167 313° West 234 269 6,000 -793 Descending Northern Cal TRACON
Sun 06:03:18 PM 37.5500 -121.7833 302° West 245 282 5,300 -450 Descending Northern Cal TRACON
Sun 06:04:18 PM 37.5833 -121.8667 297° West 228 262 5,100 -350 Descending Northern Cal TRACON
Sun 06:05:18 PM 37.6167 -121.9167 310° West 230 265 4,600 -1,000 Descending Northern Cal TRACON
Sun 06:06:18 PM 37.6500 -121.9833 302° West 220 253 3,100 -1,050 Descending Northern Cal TRACON
Sun 06:07:18 PM 37.6833 -122.0500 302° West 197 227 2,500 -700 Descending Northern Cal TRACON
Sun 06:08:18 PM 37.7000 -122.1167 288° West 158 182 1,700 -800 Descending Northern Cal TRACON
Sun 06:09:18 PM 37.7000 -122.1500 270° West 126 145 900 -700 Descending Northern Cal TRACON
Sun 06:10:18 PM 37.7167 -122.2000 293° West 110 127 300 -600 Descending Northern Cal TRACON
Sun 06:12:00 PM 37.7167 -122.2167 270° West  Level FlightAware Approximate
Sun 06:19:00 PM 37.7213 -122.2207 270° West  Level Estimated
Sun 06:20:00 PM 37.7167 -122.2167 270° West  Level FlightAware Approximate

Login

Don't have an account? Register now (free) for customized features, flight alerts, and more!